sensor_id;sensor_type;location;lat;lon;timestamp;P1;durP1;ratioP1;P2;durP2;ratioP2
11287;SDS011;5700;50.996;7.044;2022-08-19T00:01:37;16.63;;;11.32;;
11287;SDS011;5700;50.996;7.044;2022-08-19T00:04:39;17.50;;;11.73;;
11287;SDS011;5700;50.996;7.044;2022-08-19T00:07:41;16.20;;;12.25;;
11287;SDS011;5700;50.996;7.044;2022-08-19T00:10:44;16.55;;;11.77;;
11287;SDS011;5700;50.996;7.044;2022-08-19T00:13:45;14.15;;;10.38;;
11287;SDS011;5700;50.996;7.044;2022-08-19T00:16:49;14.93;;;10.93;;
11287;SDS011;5700;50.996;7.044;2022-08-19T00:19:54;16.42;;;11.02;;
11287;SDS011;5700;50.996;7.044;2022-08-19T00:22:55;14.80;;;11.35;;
11287;SDS011;5700;50.996;7.044;2022-08-19T00:25:57;19.00;;;11.98;;
11287;SDS011;5700;50.996;7.044;2022-08-19T00:28:58;15.18;;;10.88;;
11287;SDS011;5700;50.996;7.044;2022-08-19T00:32:02;14.98;;;10.85;;
11287;SDS011;5700;50.996;7.044;2022-08-19T00:35:04;18.15;;;11.75;;
11287;SDS011;5700;50.996;7.044;2022-08-19T00:38:06;15.90;;;10.93;;
11287;SDS011;5700;50.996;7.044;2022-08-19T00:41:07;17.45;;;11.05;;
11287;SDS011;5700;50.996;7.044;2022-08-19T00:44:13;15.68;;;11.35;;
11287;SDS011;5700;50.996;7.044;2022-08-19T00:47:17;16.27;;;11.43;;
11287;SDS011;5700;50.996;7.044;2022-08-19T00:50:19;14.88;;;11.15;;
11287;SDS011;5700;50.996;7.044;2022-08-19T00:53:22;14.77;;;11.00;;
11287;SDS011;5700;50.996;7.044;2022-08-19T00:56:25;14.50;;;10.95;;
11287;SDS011;5700;50.996;7.044;2022-08-19T00:59:28;13.93;;;10.10;;
11287;SDS011;5700;50.996;7.044;2022-08-19T01:02:31;16.90;;;11.63;;
11287;SDS011;5700;50.996;7.044;2022-08-19T01:05:33;16.85;;;11.27;;
11287;SDS011;5700;50.996;7.044;2022-08-19T01:08:35;18.08;;;11.20;;
11287;SDS011;5700;50.996;7.044;2022-08-19T01:11:38;17.73;;;12.05;;
11287;SDS011;5700;50.996;7.044;2022-08-19T01:14:42;17.33;;;11.88;;
11287;SDS011;5700;50.996;7.044;2022-08-19T01:17:45;16.83;;;11.07;;
11287;SDS011;5700;50.996;7.044;2022-08-19T01:20:47;16.23;;;11.52;;
11287;SDS011;5700;50.996;7.044;2022-08-19T01:23:50;15.50;;;10.60;;
11287;SDS011;5700;50.996;7.044;2022-08-19T01:26:51;15.95;;;10.80;;
11287;SDS011;5700;50.996;7.044;2022-08-19T01:29:53;15.02;;;10.70;;
11287;SDS011;5700;50.996;7.044;2022-08-19T01:32:55;16.60;;;11.35;;
11287;SDS011;5700;50.996;7.044;2022-08-19T01:36:02;20.05;;;11.10;;
11287;SDS011;5700;50.996;7.044;2022-08-19T01:39:07;16.52;;;11.18;;
11287;SDS011;5700;50.996;7.044;2022-08-19T01:42:30;14.45;;;10.75;;
11287;SDS011;5700;50.996;7.044;2022-08-19T01:45:32;14.98;;;10.45;;
11287;SDS011;5700;50.996;7.044;2022-08-19T01:48:35;14.10;;;10.32;;
11287;SDS011;5700;50.996;7.044;2022-08-19T01:51:37;15.65;;;10.05;;
11287;SDS011;5700;50.996;7.044;2022-08-19T01:54:40;15.43;;;11.00;;
11287;SDS011;5700;50.996;7.044;2022-08-19T01:57:42;14.93;;;10.73;;
11287;SDS011;5700;50.996;7.044;2022-08-19T02:00:46;15.43;;;10.98;;
11287;SDS011;5700;50.996;7.044;2022-08-19T02:03:48;14.95;;;10.60;;
11287;SDS011;5700;50.996;7.044;2022-08-19T02:06:51;14.98;;;10.70;;
11287;SDS011;5700;50.996;7.044;2022-08-19T02:09:54;14.48;;;10.43;;
11287;SDS011;5700;50.996;7.044;2022-08-19T02:12:57;16.20;;;11.32;;
11287;SDS011;5700;50.996;7.044;2022-08-19T02:15:59;16.30;;;11.05;;
11287;SDS011;5700;50.996;7.044;2022-08-19T02:19:00;15.63;;;10.85;;
11287;SDS011;5700;50.996;7.044;2022-08-19T02:22:02;16.88;;;11.52;;
11287;SDS011;5700;50.996;7.044;2022-08-19T02:25:05;15.38;;;10.75;;
11287;SDS011;5700;50.996;7.044;2022-08-19T02:28:07;16.35;;;11.02;;
11287;SDS011;5700;50.996;7.044;2022-08-19T02:31:09;17.08;;;10.88;;
11287;SDS011;5700;50.996;7.044;2022-08-19T02:34:10;16.15;;;11.32;;
11287;SDS011;5700;50.996;7.044;2022-08-19T02:37:12;14.70;;;10.18;;
11287;SDS011;5700;50.996;7.044;2022-08-19T02:40:30;15.85;;;11.02;;
11287;SDS011;5700;50.996;7.044;2022-08-19T02:43:33;14.85;;;10.68;;
11287;SDS011;5700;50.996;7.044;2022-08-19T02:46:35;15.10;;;10.90;;
11287;SDS011;5700;50.996;7.044;2022-08-19T02:49:37;16.67;;;11.90;;
11287;SDS011;5700;50.996;7.044;2022-08-19T02:52:38;16.08;;;10.15;;
11287;SDS011;5700;50.996;7.044;2022-08-19T02:55:45;16.23;;;11.70;;
11287;SDS011;5700;50.996;7.044;2022-08-19T02:58:47;16.05;;;11.15;;
11287;SDS011;5700;50.996;7.044;2022-08-19T03:01:49;16.02;;;11.13;;
11287;SDS011;5700;50.996;7.044;2022-08-19T03:04:50;14.95;;;11.23;;
11287;SDS011;5700;50.996;7.044;2022-08-19T03:07:52;15.18;;;10.57;;
11287;SDS011;5700;50.996;7.044;2022-08-19T03:10:55;13.55;;;10.10;;
11287;SDS011;5700;50.996;7.044;2022-08-19T03:13:56;16.08;;;10.48;;
11287;SDS011;5700;50.996;7.044;2022-08-19T03:17:00;14.00;;;10.48;;
11287;SDS011;5700;50.996;7.044;2022-08-19T03:20:02;16.23;;;11.23;;
11287;SDS011;5700;50.996;7.044;2022-08-19T03:23:04;16.80;;;11.35;;
11287;SDS011;5700;50.996;7.044;2022-08-19T03:26:07;15.32;;;10.63;;
11287;SDS011;5700;50.996;7.044;2022-08-19T03:29:08;14.85;;;10.60;;
11287;SDS011;5700;50.996;7.044;2022-08-19T03:32:11;15.73;;;10.77;;
11287;SDS011;5700;50.996;7.044;2022-08-19T03:35:12;15.85;;;10.95;;
11287;SDS011;5700;50.996;7.044;2022-08-19T03:38:14;14.45;;;10.38;;
11287;SDS011;5700;50.996;7.044;2022-08-19T03:41:18;14.52;;;11.13;;
11287;SDS011;5700;50.996;7.044;2022-08-19T03:44:21;15.20;;;11.07;;
11287;SDS011;5700;50.996;7.044;2022-08-19T03:47:23;15.20;;;10.75;;
11287;SDS011;5700;50.996;7.044;2022-08-19T03:50:25;17.95;;;10.95;;
11287;SDS011;5700;50.996;7.044;2022-08-19T03:53:27;14.57;;;10.90;;
11287;SDS011;5700;50.996;7.044;2022-08-19T03:56:30;15.07;;;10.88;;
11287;SDS011;5700;50.996;7.044;2022-08-19T03:59:35;13.88;;;10.40;;
11287;SDS011;5700;50.996;7.044;2022-08-19T04:02:38;14.32;;;10.13;;
11287;SDS011;5700;50.996;7.044;2022-08-19T04:05:39;19.88;;;10.90;;
11287;SDS011;5700;50.996;7.044;2022-08-19T04:08:41;15.13;;;10.38;;
11287;SDS011;5700;50.996;7.044;2022-08-19T04:11:45;14.93;;;10.63;;
11287;SDS011;5700;50.996;7.044;2022-08-19T04:14:48;16.55;;;10.60;;
11287;SDS011;5700;50.996;7.044;2022-08-19T04:17:49;14.48;;;9.85;;
11287;SDS011;5700;50.996;7.044;2022-08-19T04:20:51;15.98;;;11.07;;
11287;SDS011;5700;50.996;7.044;2022-08-19T04:23:53;13.60;;;9.98;;
11287;SDS011;5700;50.996;7.044;2022-08-19T04:26:56;15.82;;;10.43;;
11287;SDS011;5700;50.996;7.044;2022-08-19T04:30:00;14.55;;;9.88;;
11287;SDS011;5700;50.996;7.044;2022-08-19T04:33:01;13.70;;;10.38;;
11287;SDS011;5700;50.996;7.044;2022-08-19T04:36:04;14.88;;;10.40;;
11287;SDS011;5700;50.996;7.044;2022-08-19T04:39:08;13.35;;;9.30;;
11287;SDS011;5700;50.996;7.044;2022-08-19T04:42:13;16.67;;;10.85;;
11287;SDS011;5700;50.996;7.044;2022-08-19T04:45:29;16.65;;;11.13;;
11287;SDS011;5700;50.996;7.044;2022-08-19T04:48:30;16.02;;;11.35;;
11287;SDS011;5700;50.996;7.044;2022-08-19T04:51:32;16.55;;;10.77;;
11287;SDS011;5700;50.996;7.044;2022-08-19T04:54:34;17.05;;;11.45;;
11287;SDS011;5700;50.996;7.044;2022-08-19T04:57:37;18.42;;;11.75;;
11287;SDS011;5700;50.996;7.044;2022-08-19T05:00:40;18.05;;;11.35;;
11287;SDS011;5700;50.996;7.044;2022-08-19T05:03:41;14.95;;;10.75;;
11287;SDS011;5700;50.996;7.044;2022-08-19T05:06:42;16.42;;;11.73;;
11287;SDS011;5700;50.996;7.044;2022-08-19T05:09:44;16.33;;;10.95;;
11287;SDS011;5700;50.996;7.044;2022-08-19T05:12:47;15.35;;;11.25;;
11287;SDS011;5700;50.996;7.044;2022-08-19T05:15:53;15.82;;;11.23;;
11287;SDS011;5700;50.996;7.044;2022-08-19T05:18:55;18.25;;;12.73;;
11287;SDS011;5700;50.996;7.044;2022-08-19T05:22:10;17.25;;;11.48;;
11287;SDS011;5700;50.996;7.044;2022-08-19T05:25:26;15.73;;;11.02;;
11287;SDS011;5700;50.996;7.044;2022-08-19T05:28:28;14.63;;;10.40;;
11287;SDS011;5700;50.996;7.044;2022-08-19T05:31:30;15.98;;;10.98;;
11287;SDS011;5700;50.996;7.044;2022-08-19T05:34:32;15.98;;;10.52;;
11287;SDS011;5700;50.996;7.044;2022-08-19T05:37:35;15.43;;;11.60;;
11287;SDS011;5700;50.996;7.044;2022-08-19T05:40:37;15.90;;;11.05;;
11287;SDS011;5700;50.996;7.044;2022-08-19T05:43:40;15.27;;;11.45;;
11287;SDS011;5700;50.996;7.044;2022-08-19T05:46:42;17.27;;;10.50;;
11287;SDS011;5700;50.996;7.044;2022-08-19T05:49:47;18.63;;;12.00;;
11287;SDS011;5700;50.996;7.044;2022-08-19T05:52:49;15.50;;;11.50;;
11287;SDS011;5700;50.996;7.044;2022-08-19T05:55:51;15.20;;;10.75;;
11287;SDS011;5700;50.996;7.044;2022-08-19T05:58:53;16.70;;;11.20;;
11287;SDS011;5700;50.996;7.044;2022-08-19T06:01:55;16.92;;;10.02;;
11287;SDS011;5700;50.996;7.044;2022-08-19T06:04:56;15.13;;;10.07;;
11287;SDS011;5700;50.996;7.044;2022-08-19T06:07:58;15.93;;;11.50;;
11287;SDS011;5700;50.996;7.044;2022-08-19T06:11:11;17.10;;;12.13;;
11287;SDS011;5700;50.996;7.044;2022-08-19T06:14:16;20.60;;;13.00;;
11287;SDS011;5700;50.996;7.044;2022-08-19T06:17:20;18.55;;;12.07;;
11287;SDS011;5700;50.996;7.044;2022-08-19T06:20:25;21.60;;;13.45;;
11287;SDS011;5700;50.996;7.044;2022-08-19T06:23:27;21.75;;;13.75;;
11287;SDS011;5700;50.996;7.044;2022-08-19T06:26:29;21.98;;;14.43;;
11287;SDS011;5700;50.996;7.044;2022-08-19T06:29:32;23.73;;;15.45;;
11287;SDS011;5700;50.996;7.044;2022-08-19T06:32:35;23.25;;;15.55;;
11287;SDS011;5700;50.996;7.044;2022-08-19T06:35:38;37.15;;;23.95;;
11287;SDS011;5700;50.996;7.044;2022-08-19T06:38:39;40.03;;;24.67;;
11287;SDS011;5700;50.996;7.044;2022-08-19T06:41:41;41.70;;;24.02;;
11287;SDS011;5700;50.996;7.044;2022-08-19T06:44:46;41.67;;;25.48;;
11287;SDS011;5700;50.996;7.044;2022-08-19T06:47:49;42.53;;;25.33;;
11287;SDS011;5700;50.996;7.044;2022-08-19T06:50:51;37.85;;;25.17;;
11287;SDS011;5700;50.996;7.044;2022-08-19T06:53:53;41.80;;;25.23;;
11287;SDS011;5700;50.996;7.044;2022-08-19T06:56:56;40.05;;;24.63;;
11287;SDS011;5700;50.996;7.044;2022-08-19T06:59:58;37.78;;;23.92;;
11287;SDS011;5700;50.996;7.044;2022-08-19T07:03:00;38.17;;;23.75;;
11287;SDS011;5700;50.996;7.044;2022-08-19T07:06:02;36.00;;;22.40;;
11287;SDS011;5700;50.996;7.044;2022-08-19T07:09:05;35.30;;;20.65;;
11287;SDS011;5700;50.996;7.044;2022-08-19T07:12:08;30.75;;;21.55;;
11287;SDS011;5700;50.996;7.044;2022-08-19T07:15:12;32.58;;;20.52;;
11287;SDS011;5700;50.996;7.044;2022-08-19T07:18:15;33.80;;;21.88;;
11287;SDS011;5700;50.996;7.044;2022-08-19T07:21:18;28.98;;;19.55;;
11287;SDS011;5700;50.996;7.044;2022-08-19T07:24:23;30.30;;;19.45;;
11287;SDS011;5700;50.996;7.044;2022-08-19T07:27:25;33.90;;;21.25;;
11287;SDS011;5700;50.996;7.044;2022-08-19T07:30:28;27.92;;;18.65;;
11287;SDS011;5700;50.996;7.044;2022-08-19T07:33:30;29.10;;;17.55;;
11287;SDS011;5700;50.996;7.044;2022-08-19T07:36:32;28.80;;;18.10;;
11287;SDS011;5700;50.996;7.044;2022-08-19T07:39:35;25.08;;;16.35;;
11287;SDS011;5700;50.996;7.044;2022-08-19T07:42:38;32.00;;;17.58;;
11287;SDS011;5700;50.996;7.044;2022-08-19T07:45:40;29.55;;;17.60;;
11287;SDS011;5700;50.996;7.044;2022-08-19T07:48:43;30.42;;;19.58;;
11287;SDS011;5700;50.996;7.044;2022-08-19T07:51:47;27.60;;;18.35;;
11287;SDS011;5700;50.996;7.044;2022-08-19T07:54:50;29.75;;;18.38;;
11287;SDS011;5700;50.996;7.044;2022-08-19T07:57:52;25.90;;;16.05;;
11287;SDS011;5700;50.996;7.044;2022-08-19T08:00:55;23.80;;;16.90;;
11287;SDS011;5700;50.996;7.044;2022-08-19T08:03:57;24.75;;;15.80;;
11287;SDS011;5700;50.996;7.044;2022-08-19T08:07:12;28.92;;;18.30;;
11287;SDS011;5700;50.996;7.044;2022-08-19T08:10:28;26.48;;;16.67;;
11287;SDS011;5700;50.996;7.044;2022-08-19T08:13:29;26.85;;;17.52;;
11287;SDS011;5700;50.996;7.044;2022-08-19T08:16:35;27.55;;;17.17;;
11287;SDS011;5700;50.996;7.044;2022-08-19T08:19:37;28.15;;;16.80;;
11287;SDS011;5700;50.996;7.044;2022-08-19T08:22:42;31.50;;;18.30;;
11287;SDS011;5700;50.996;7.044;2022-08-19T08:25:58;23.23;;;14.70;;
11287;SDS011;5700;50.996;7.044;2022-08-19T08:29:01;26.58;;;16.08;;
11287;SDS011;5700;50.996;7.044;2022-08-19T08:32:05;28.10;;;17.02;;
11287;SDS011;5700;50.996;7.044;2022-08-19T08:35:08;29.67;;;18.38;;
11287;SDS011;5700;50.996;7.044;2022-08-19T08:38:11;32.85;;;18.67;;
11287;SDS011;5700;50.996;7.044;2022-08-19T08:41:16;30.67;;;17.95;;
11287;SDS011;5700;50.996;7.044;2022-08-19T08:44:23;34.30;;;18.98;;
11287;SDS011;5700;50.996;7.044;2022-08-19T08:47:35;27.52;;;17.27;;
11287;SDS011;5700;50.996;7.044;2022-08-19T08:50:40;31.90;;;18.35;;
11287;SDS011;5700;50.996;7.044;2022-08-19T08:53:43;33.38;;;19.65;;
11287;SDS011;5700;50.996;7.044;2022-08-19T08:56:46;35.17;;;21.35;;
11287;SDS011;5700;50.996;7.044;2022-08-19T08:59:49;33.05;;;19.63;;
11287;SDS011;5700;50.996;7.044;2022-08-19T09:02:53;30.20;;;18.52;;
11287;SDS011;5700;50.996;7.044;2022-08-19T09:05:57;28.42;;;16.70;;
11287;SDS011;5700;50.996;7.044;2022-08-19T09:09:03;36.90;;;20.45;;
11287;SDS011;5700;50.996;7.044;2022-08-19T09:12:06;31.33;;;19.83;;
11287;SDS011;5700;50.996;7.044;2022-08-19T09:15:12;34.72;;;22.00;;
11287;SDS011;5700;50.996;7.044;2022-08-19T09:18:17;37.83;;;22.70;;
11287;SDS011;5700;50.996;7.044;2022-08-19T09:21:19;35.30;;;21.00;;
11287;SDS011;5700;50.996;7.044;2022-08-19T09:24:22;30.90;;;16.85;;
11287;SDS011;5700;50.996;7.044;2022-08-19T09:27:24;33.22;;;19.67;;
11287;SDS011;5700;50.996;7.044;2022-08-19T09:30:27;29.75;;;17.45;;
11287;SDS011;5700;50.996;7.044;2022-08-19T09:33:31;29.00;;;17.50;;
11287;SDS011;5700;50.996;7.044;2022-08-19T09:36:33;31.98;;;17.77;;
11287;SDS011;5700;50.996;7.044;2022-08-19T09:39:35;27.70;;;16.90;;
11287;SDS011;5700;50.996;7.044;2022-08-19T09:42:38;29.10;;;17.55;;
11287;SDS011;5700;50.996;7.044;2022-08-19T09:45:39;31.85;;;16.67;;
11287;SDS011;5700;50.996;7.044;2022-08-19T09:48:42;30.48;;;17.15;;
11287;SDS011;5700;50.996;7.044;2022-08-19T09:51:48;28.50;;;15.70;;
11287;SDS011;5700;50.996;7.044;2022-08-19T09:54:51;28.77;;;17.77;;
11287;SDS011;5700;50.996;7.044;2022-08-19T09:57:53;23.15;;;15.02;;
11287;SDS011;5700;50.996;7.044;2022-08-19T10:00:55;29.02;;;16.05;;
11287;SDS011;5700;50.996;7.044;2022-08-19T10:04:00;24.23;;;15.10;;
11287;SDS011;5700;50.996;7.044;2022-08-19T10:07:02;25.35;;;14.45;;
11287;SDS011;5700;50.996;7.044;2022-08-19T10:10:04;23.75;;;13.85;;
11287;SDS011;5700;50.996;7.044;2022-08-19T10:13:07;23.83;;;13.23;;
11287;SDS011;5700;50.996;7.044;2022-08-19T10:16:09;20.58;;;12.45;;
11287;SDS011;5700;50.996;7.044;2022-08-19T10:19:14;14.93;;;9.05;;
11287;SDS011;5700;50.996;7.044;2022-08-19T10:22:15;14.02;;;8.13;;
11287;SDS011;5700;50.996;7.044;2022-08-19T10:25:17;15.02;;;9.15;;
11287;SDS011;5700;50.996;7.044;2022-08-19T10:28:18;18.30;;;12.00;;
11287;SDS011;5700;50.996;7.044;2022-08-19T10:31:21;19.00;;;11.90;;
11287;SDS011;5700;50.996;7.044;2022-08-19T10:34:26;16.63;;;9.95;;
11287;SDS011;5700;50.996;7.044;2022-08-19T10:37:28;17.27;;;9.18;;
11287;SDS011;5700;50.996;7.044;2022-08-19T10:40:30;14.38;;;9.93;;
11287;SDS011;5700;50.996;7.044;2022-08-19T10:43:32;11.43;;;8.18;;
11287;SDS011;5700;50.996;7.044;2022-08-19T10:46:35;14.10;;;9.02;;
11287;SDS011;5700;50.996;7.044;2022-08-19T10:49:39;13.10;;;9.45;;
11287;SDS011;5700;50.996;7.044;2022-08-19T10:52:55;15.88;;;9.30;;
11287;SDS011;5700;50.996;7.044;2022-08-19T10:55:56;16.33;;;8.80;;
11287;SDS011;5700;50.996;7.044;2022-08-19T10:59:12;13.73;;;8.45;;
11287;SDS011;5700;50.996;7.044;2022-08-19T11:02:14;15.07;;;8.20;;
11287;SDS011;5700;50.996;7.044;2022-08-19T11:05:16;17.13;;;10.25;;
11287;SDS011;5700;50.996;7.044;2022-08-19T11:08:18;14.40;;;7.25;;
11287;SDS011;5700;50.996;7.044;2022-08-19T11:11:20;10.75;;;7.20;;
11287;SDS011;5700;50.996;7.044;2022-08-19T11:14:22;12.95;;;7.53;;
11287;SDS011;5700;50.996;7.044;2022-08-19T11:17:25;13.20;;;7.13;;
11287;SDS011;5700;50.996;7.044;2022-08-19T11:20:27;14.02;;;8.70;;
11287;SDS011;5700;50.996;7.044;2022-08-19T11:23:30;11.48;;;7.20;;
11287;SDS011;5700;50.996;7.044;2022-08-19T11:26:32;15.40;;;8.82;;
11287;SDS011;5700;50.996;7.044;2022-08-19T11:29:33;12.45;;;8.35;;
11287;SDS011;5700;50.996;7.044;2022-08-19T11:32:36;16.50;;;10.38;;
11287;SDS011;5700;50.996;7.044;2022-08-19T11:35:40;15.80;;;9.02;;
11287;SDS011;5700;50.996;7.044;2022-08-19T11:38:41;14.27;;;9.98;;
11287;SDS011;5700;50.996;7.044;2022-08-19T11:41:43;13.48;;;8.55;;
11287;SDS011;5700;50.996;7.044;2022-08-19T11:44:44;14.02;;;8.23;;
11287;SDS011;5700;50.996;7.044;2022-08-19T11:47:46;13.55;;;7.95;;
11287;SDS011;5700;50.996;7.044;2022-08-19T11:50:49;11.65;;;7.88;;
11287;SDS011;5700;50.996;7.044;2022-08-19T11:53:51;15.82;;;9.30;;
11287;SDS011;5700;50.996;7.044;2022-08-19T11:56:53;11.68;;;8.20;;
11287;SDS011;5700;50.996;7.044;2022-08-19T11:59:54;12.20;;;8.68;;
11287;SDS011;5700;50.996;7.044;2022-08-19T12:02:56;12.63;;;8.70;;
11287;SDS011;5700;50.996;7.044;2022-08-19T12:05:59;15.02;;;9.30;;
11287;SDS011;5700;50.996;7.044;2022-08-19T12:09:05;13.15;;;9.23;;
11287;SDS011;5700;50.996;7.044;2022-08-19T12:12:08;12.75;;;8.10;;
11287;SDS011;5700;50.996;7.044;2022-08-19T12:15:10;12.95;;;8.70;;
11287;SDS011;5700;50.996;7.044;2022-08-19T12:18:12;12.27;;;8.93;;
11287;SDS011;5700;50.996;7.044;2022-08-19T12:21:16;11.88;;;7.43;;
11287;SDS011;5700;50.996;7.044;2022-08-19T12:24:21;11.80;;;7.78;;
11287;SDS011;5700;50.996;7.044;2022-08-19T12:27:23;13.15;;;7.32;;
11287;SDS011;5700;50.996;7.044;2022-08-19T12:30:24;10.95;;;7.25;;
11287;SDS011;5700;50.996;7.044;2022-08-19T12:33:26;11.52;;;7.70;;
11287;SDS011;5700;50.996;7.044;2022-08-19T12:36:29;10.90;;;7.55;;
11287;SDS011;5700;50.996;7.044;2022-08-19T12:39:33;12.48;;;7.82;;
11287;SDS011;5700;50.996;7.044;2022-08-19T12:42:35;14.95;;;6.30;;
11287;SDS011;5700;50.996;7.044;2022-08-19T12:45:37;9.82;;;6.40;;
11287;SDS011;5700;50.996;7.044;2022-08-19T12:48:39;9.82;;;7.03;;
11287;SDS011;5700;50.996;7.044;2022-08-19T12:51:43;17.50;;;6.68;;
11287;SDS011;5700;50.996;7.044;2022-08-19T12:54:44;9.13;;;6.80;;
11287;SDS011;5700;50.996;7.044;2022-08-19T12:57:46;8.77;;;6.32;;
11287;SDS011;5700;50.996;7.044;2022-08-19T13:00:48;10.07;;;6.07;;
11287;SDS011;5700;50.996;7.044;2022-08-19T13:03:50;11.50;;;7.03;;
11287;SDS011;5700;50.996;7.044;2022-08-19T13:06:54;14.85;;;6.90;;
11287;SDS011;5700;50.996;7.044;2022-08-19T13:09:55;11.02;;;7.00;;
11287;SDS011;5700;50.996;7.044;2022-08-19T13:12:57;14.07;;;6.03;;
11287;SDS011;5700;50.996;7.044;2022-08-19T13:15:59;9.48;;;6.60;;
11287;SDS011;5700;50.996;7.044;2022-08-19T13:19:03;9.68;;;6.18;;
11287;SDS011;5700;50.996;7.044;2022-08-19T13:22:06;9.90;;;5.70;;
11287;SDS011;5700;50.996;7.044;2022-08-19T13:25:08;12.70;;;6.13;;
11287;SDS011;5700;50.996;7.044;2022-08-19T13:28:09;10.93;;;6.43;;
11287;SDS011;5700;50.996;7.044;2022-08-19T13:31:11;7.88;;;5.60;;
11287;SDS011;5700;50.996;7.044;2022-08-19T13:34:30;8.82;;;5.00;;
11287;SDS011;5700;50.996;7.044;2022-08-19T13:37:35;8.80;;;5.18;;
11287;SDS011;5700;50.996;7.044;2022-08-19T13:40:43;9.30;;;5.10;;
11287;SDS011;5700;50.996;7.044;2022-08-19T13:43:46;8.32;;;5.07;;
11287;SDS011;5700;50.996;7.044;2022-08-19T13:46:49;10.50;;;5.32;;
11287;SDS011;5700;50.996;7.044;2022-08-19T13:49:52;11.02;;;5.43;;
11287;SDS011;5700;50.996;7.044;2022-08-19T13:52:55;10.75;;;5.40;;
11287;SDS011;5700;50.996;7.044;2022-08-19T13:55:57;8.25;;;5.03;;
11287;SDS011;5700;50.996;7.044;2022-08-19T13:58:58;6.95;;;4.80;;
11287;SDS011;5700;50.996;7.044;2022-08-19T14:02:00;8.30;;;4.68;;
11287;SDS011;5700;50.996;7.044;2022-08-19T14:05:01;9.65;;;4.88;;
11287;SDS011;5700;50.996;7.044;2022-08-19T14:08:04;7.22;;;4.30;;
11287;SDS011;5700;50.996;7.044;2022-08-19T14:11:06;8.40;;;4.63;;
11287;SDS011;5700;50.996;7.044;2022-08-19T14:14:07;7.53;;;4.65;;
11287;SDS011;5700;50.996;7.044;2022-08-19T14:17:09;5.32;;;3.47;;
11287;SDS011;5700;50.996;7.044;2022-08-19T14:20:11;7.82;;;3.65;;
11287;SDS011;5700;50.996;7.044;2022-08-19T14:23:14;6.18;;;3.13;;
11287;SDS011;5700;50.996;7.044;2022-08-19T14:26:16;9.00;;;4.07;;
11287;SDS011;5700;50.996;7.044;2022-08-19T14:29:19;8.38;;;4.68;;
11287;SDS011;5700;50.996;7.044;2022-08-19T14:32:20;8.95;;;4.47;;
11287;SDS011;5700;50.996;7.044;2022-08-19T14:35:22;8.93;;;3.97;;
11287;SDS011;5700;50.996;7.044;2022-08-19T14:38:25;6.47;;;3.70;;
11287;SDS011;5700;50.996;7.044;2022-08-19T14:41:27;7.60;;;3.72;;
11287;SDS011;5700;50.996;7.044;2022-08-19T14:44:29;7.95;;;4.15;;
11287;SDS011;5700;50.996;7.044;2022-08-19T14:47:33;6.28;;;4.00;;
11287;SDS011;5700;50.996;7.044;2022-08-19T14:50:35;6.47;;;3.10;;
11287;SDS011;5700;50.996;7.044;2022-08-19T14:53:38;5.50;;;3.25;;
11287;SDS011;5700;50.996;7.044;2022-08-19T14:56:40;6.43;;;3.60;;
11287;SDS011;5700;50.996;7.044;2022-08-19T14:59:41;7.10;;;3.08;;
11287;SDS011;5700;50.996;7.044;2022-08-19T15:02:43;6.18;;;3.13;;
11287;SDS011;5700;50.996;7.044;2022-08-19T15:05:45;7.00;;;3.17;;
11287;SDS011;5700;50.996;7.044;2022-08-19T15:08:47;6.10;;;3.10;;
11287;SDS011;5700;50.996;7.044;2022-08-19T15:11:51;6.10;;;3.40;;
11287;SDS011;5700;50.996;7.044;2022-08-19T15:14:52;8.35;;;2.90;;
11287;SDS011;5700;50.996;7.044;2022-08-19T15:17:54;9.15;;;3.28;;
11287;SDS011;5700;50.996;7.044;2022-08-19T15:21:02;8.18;;;2.85;;
11287;SDS011;5700;50.996;7.044;2022-08-19T15:24:05;4.38;;;2.42;;
11287;SDS011;5700;50.996;7.044;2022-08-19T15:27:07;4.72;;;2.47;;
11287;SDS011;5700;50.996;7.044;2022-08-19T15:30:09;5.45;;;2.42;;
11287;SDS011;5700;50.996;7.044;2022-08-19T15:33:11;4.63;;;2.55;;
11287;SDS011;5700;50.996;7.044;2022-08-19T15:36:14;5.20;;;2.80;;
11287;SDS011;5700;50.996;7.044;2022-08-19T15:39:17;6.22;;;2.35;;
11287;SDS011;5700;50.996;7.044;2022-08-19T15:42:20;4.35;;;2.50;;
11287;SDS011;5700;50.996;7.044;2022-08-19T15:45:21;4.20;;;2.40;;
11287;SDS011;5700;50.996;7.044;2022-08-19T15:48:31;3.55;;;2.20;;
11287;SDS011;5700;50.996;7.044;2022-08-19T15:51:33;4.95;;;2.40;;
11287;SDS011;5700;50.996;7.044;2022-08-19T15:54:36;4.97;;;2.20;;
11287;SDS011;5700;50.996;7.044;2022-08-19T15:57:38;2.88;;;2.05;;
11287;SDS011;5700;50.996;7.044;2022-08-19T16:00:53;5.78;;;1.90;;
11287;SDS011;5700;50.996;7.044;2022-08-19T16:04:09;2.28;;;1.70;;
11287;SDS011;5700;50.996;7.044;2022-08-19T16:07:25;3.47;;;1.90;;
11287;SDS011;5700;50.996;7.044;2022-08-19T16:10:28;4.30;;;2.20;;
11287;SDS011;5700;50.996;7.044;2022-08-19T16:13:29;4.00;;;2.15;;
11287;SDS011;5700;50.996;7.044;2022-08-19T16:16:32;4.15;;;2.03;;
11287;SDS011;5700;50.996;7.044;2022-08-19T16:19:34;5.15;;;2.17;;
11287;SDS011;5700;50.996;7.044;2022-08-19T16:22:36;3.92;;;2.03;;
11287;SDS011;5700;50.996;7.044;2022-08-19T16:25:39;3.80;;;2.10;;
11287;SDS011;5700;50.996;7.044;2022-08-19T16:28:41;4.88;;;2.05;;
11287;SDS011;5700;50.996;7.044;2022-08-19T16:31:43;4.57;;;2.55;;
11287;SDS011;5700;50.996;7.044;2022-08-19T16:34:46;5.45;;;2.20;;
11287;SDS011;5700;50.996;7.044;2022-08-19T16:37:48;4.63;;;2.30;;
11287;SDS011;5700;50.996;7.044;2022-08-19T16:40:50;6.80;;;2.75;;
11287;SDS011;5700;50.996;7.044;2022-08-19T16:43:53;3.15;;;2.20;;
11287;SDS011;5700;50.996;7.044;2022-08-19T16:46:55;5.40;;;2.20;;
11287;SDS011;5700;50.996;7.044;2022-08-19T16:49:56;7.00;;;1.98;;
11287;SDS011;5700;50.996;7.044;2022-08-19T16:52:58;2.90;;;1.63;;
11287;SDS011;5700;50.996;7.044;2022-08-19T16:56:00;4.80;;;2.10;;
11287;SDS011;5700;50.996;7.044;2022-08-19T16:59:02;5.97;;;2.60;;
11287;SDS011;5700;50.996;7.044;2022-08-19T17:02:04;3.70;;;2.05;;
11287;SDS011;5700;50.996;7.044;2022-08-19T17:05:06;4.18;;;2.05;;
11287;SDS011;5700;50.996;7.044;2022-08-19T17:08:08;3.55;;;2.50;;
11287;SDS011;5700;50.996;7.044;2022-08-19T17:11:11;3.30;;;1.83;;
11287;SDS011;5700;50.996;7.044;2022-08-19T17:14:12;3.75;;;1.70;;
11287;SDS011;5700;50.996;7.044;2022-08-19T17:17:17;3.40;;;1.75;;
11287;SDS011;5700;50.996;7.044;2022-08-19T17:20:18;4.55;;;1.67;;
11287;SDS011;5700;50.996;7.044;2022-08-19T17:23:20;4.30;;;1.80;;
11287;SDS011;5700;50.996;7.044;2022-08-19T17:26:24;2.92;;;1.80;;
11287;SDS011;5700;50.996;7.044;2022-08-19T17:29:25;3.28;;;1.60;;
11287;SDS011;5700;50.996;7.044;2022-08-19T17:32:27;4.32;;;1.65;;
11287;SDS011;5700;50.996;7.044;2022-08-19T17:35:28;3.05;;;1.85;;
11287;SDS011;5700;50.996;7.044;2022-08-19T17:38:30;2.90;;;1.92;;
11287;SDS011;5700;50.996;7.044;2022-08-19T17:41:34;3.97;;;2.28;;
11287;SDS011;5700;50.996;7.044;2022-08-19T17:44:35;7.30;;;2.30;;
11287;SDS011;5700;50.996;7.044;2022-08-19T17:47:37;5.15;;;2.17;;
11287;SDS011;5700;50.996;7.044;2022-08-19T17:50:39;6.78;;;2.80;;
11287;SDS011;5700;50.996;7.044;2022-08-19T17:53:41;6.80;;;2.20;;
11287;SDS011;5700;50.996;7.044;2022-08-19T17:56:44;6.57;;;2.30;;
11287;SDS011;5700;50.996;7.044;2022-08-19T17:59:46;3.63;;;1.92;;
11287;SDS011;5700;50.996;7.044;2022-08-19T18:02:49;4.80;;;2.22;;
11287;SDS011;5700;50.996;7.044;2022-08-19T18:05:52;5.28;;;2.45;;
11287;SDS011;5700;50.996;7.044;2022-08-19T18:08:54;3.45;;;1.98;;
11287;SDS011;5700;50.996;7.044;2022-08-19T18:11:57;4.25;;;2.08;;
11287;SDS011;5700;50.996;7.044;2022-08-19T18:14:59;7.85;;;2.10;;
11287;SDS011;5700;50.996;7.044;2022-08-19T18:18:02;5.32;;;2.22;;